<?xml version="1.0" encoding="UTF-8" standalone="no" ?>
<gpx xmlns="http://www.topografix.com/GPX/1/1" xmlns:xsi="http://www.w3.org/2001/XMLSchema-instance" xsi:schemaLocation="http://www.topografix.com/GPX/1/1 http://www.topografix.com/GPX/1/1/gpx.xsd" version="1.1" creator="VisuGPX - https://www.visugpx.com">
  <metadata>
    <name>VacancesDricouZoe</name>
  </metadata>
  <trk>
    <name><![CDATA[Journal actif: 2021-07-07 12:07]]></name>
    <trkseg>
      <trkpt lat="43.65329" lon="-1.44397">
        <ele>0.14</ele>
        <time>2021-07-07T14:07:43Z</time>
      </trkpt>
      <trkpt lat="43.65323" lon="-1.44367">
        <ele>-0.82</ele>
        <time>2021-07-07T14:08:47Z</time>
      </trkpt>
      <trkpt lat="43.6532" lon="-1.44347">
        <ele>-0.34</ele>
        <time>2021-07-07T14:09:06Z</time>
      </trkpt>
      <trkpt lat="43.65319" lon="-1.44345">
        <ele>-0.34</ele>
        <time>2021-07-07T14:09:07Z</time>
      </trkpt>
      <trkpt lat="43.65319" lon="-1.44343">
        <ele>-0.34</ele>
        <time>2021-07-07T14:09:08Z</time>
      </trkpt>
      <trkpt lat="43.6532" lon="-1.44342">
        <ele>-0.34</ele>
        <time>2021-07-07T14:09:09Z</time>
      </trkpt>
      <trkpt lat="43.65322" lon="-1.44342">
        <ele>-0.34</ele>
        <time>2021-07-07T14:09:10Z</time>
      </trkpt>
      <trkpt lat="43.65325" lon="-1.44342">
        <ele>-0.34</ele>
        <time>2021-07-07T14:09:11Z</time>
      </trkpt>
      <trkpt lat="43.65329" lon="-1.44343">
        <ele>-0.34</ele>
        <time>2021-07-07T14:09:12Z</time>
      </trkpt>
      <trkpt lat="43.65379" lon="-1.4435">
        <ele>0.62</ele>
        <time>2021-07-07T14:09:25Z</time>
      </trkpt>
      <trkpt lat="43.65388" lon="-1.44345">
        <ele>1.1</ele>
        <time>2021-07-07T14:09:28Z</time>
      </trkpt>
      <trkpt lat="43.65391" lon="-1.44346">
        <ele>1.1</ele>
        <time>2021-07-07T14:09:29Z</time>
      </trkpt>
      <trkpt lat="43.65393" lon="-1.44348">
        <ele>1.1</ele>
        <time>2021-07-07T14:09:30Z</time>
      </trkpt>
      <trkpt lat="43.65392" lon="-1.44352">
        <ele>0.62</ele>
        <time>2021-07-07T14:09:31Z</time>
      </trkpt>
      <trkpt lat="43.65391" lon="-1.44355">
        <ele>0.62</ele>
        <time>2021-07-07T14:09:32Z</time>
      </trkpt>
      <trkpt lat="43.65388" lon="-1.44364">
        <ele>0.62</ele>
        <time>2021-07-07T14:09:33Z</time>
      </trkpt>
      <trkpt lat="43.6539" lon="-1.44374">
        <ele>1.1</ele>
        <time>2021-07-07T14:09:34Z</time>
      </trkpt>
      <trkpt lat="43.6539" lon="-1.44374">
        <ele>2.06</ele>
        <time>2021-07-07T14:09:35Z</time>
      </trkpt>
      <trkpt lat="43.65409" lon="-1.44457">
        <ele>5.42</ele>
        <time>2021-07-07T14:09:49Z</time>
      </trkpt>
      <trkpt lat="43.65413" lon="-1.44476">
        <ele>5.42</ele>
        <time>2021-07-07T14:09:57Z</time>
      </trkpt>
      <trkpt lat="43.65412" lon="-1.44479">
        <ele>5.42</ele>
        <time>2021-07-07T14:09:58Z</time>
      </trkpt>
      <trkpt lat="43.6541" lon="-1.4448">
        <ele>5.42</ele>
        <time>2021-07-07T14:09:59Z</time>
      </trkpt>
      <trkpt lat="43.65407" lon="-1.44481">
        <ele>5.91</ele>
        <time>2021-07-07T14:10:00Z</time>
      </trkpt>
      <trkpt lat="43.65404" lon="-1.44483">
        <ele>6.39</ele>
        <time>2021-07-07T14:10:01Z</time>
      </trkpt>
      <trkpt lat="43.65338" lon="-1.44509">
        <ele>9.75</ele>
        <time>2021-07-07T14:10:17Z</time>
      </trkpt>
      <trkpt lat="43.65245" lon="-1.44537">
        <ele>12.15</ele>
        <time>2021-07-07T14:10:35Z</time>
      </trkpt>
      <trkpt lat="43.65196" lon="-1.44552">
        <ele>12.63</ele>
        <time>2021-07-07T14:10:48Z</time>
      </trkpt>
      <trkpt lat="43.65171" lon="-1.44556">
        <ele>12.63</ele>
        <time>2021-07-07T14:11:01Z</time>
      </trkpt>
      <trkpt lat="43.65118" lon="-1.44558">
        <ele>13.6</ele>
        <time>2021-07-07T14:11:16Z</time>
      </trkpt>
      <trkpt lat="43.65082" lon="-1.4456">
        <ele>14.56</ele>
        <time>2021-07-07T14:11:29Z</time>
      </trkpt>
      <trkpt lat="43.65075" lon="-1.44517">
        <ele>13.12</ele>
        <time>2021-07-07T14:11:41Z</time>
      </trkpt>
      <trkpt lat="43.65075" lon="-1.44495">
        <ele>12.15</ele>
        <time>2021-07-07T14:11:49Z</time>
      </trkpt>
      <trkpt lat="43.65076" lon="-1.44494">
        <ele>12.15</ele>
        <time>2021-07-07T14:11:51Z</time>
      </trkpt>
      <trkpt lat="43.65079" lon="-1.44493">
        <ele>11.67</ele>
        <time>2021-07-07T14:11:52Z</time>
      </trkpt>
      <trkpt lat="43.65124" lon="-1.44489">
        <ele>8.79</ele>
        <time>2021-07-07T14:12:06Z</time>
      </trkpt>
      <trkpt lat="43.6517" lon="-1.44483">
        <ele>5.91</ele>
        <time>2021-07-07T14:12:19Z</time>
      </trkpt>
      <trkpt lat="43.65171" lon="-1.44483">
        <ele>6.39</ele>
        <time>2021-07-07T14:12:20Z</time>
      </trkpt>
      <trkpt lat="43.65171" lon="-1.44484">
        <ele>6.39</ele>
        <time>2021-07-07T14:12:21Z</time>
      </trkpt>
      <trkpt lat="43.65171" lon="-1.44487">
        <ele>6.39</ele>
        <time>2021-07-07T14:12:22Z</time>
      </trkpt>
      <trkpt lat="43.65172" lon="-1.44492">
        <ele>6.39</ele>
        <time>2021-07-07T14:12:23Z</time>
      </trkpt>
      <trkpt lat="43.65172" lon="-1.44498">
        <ele>6.87</ele>
        <time>2021-07-07T14:12:24Z</time>
      </trkpt>
      <trkpt lat="43.65173" lon="-1.44504">
        <ele>6.87</ele>
        <time>2021-07-07T14:12:25Z</time>
      </trkpt>
      <trkpt lat="43.65174" lon="-1.4451">
        <ele>7.35</ele>
        <time>2021-07-07T14:12:26Z</time>
      </trkpt>
      <trkpt lat="43.65175" lon="-1.44523">
        <ele>7.83</ele>
        <time>2021-07-07T14:12:27Z</time>
      </trkpt>
      <trkpt lat="43.65175" lon="-1.44523">
        <ele>7.83</ele>
        <time>2021-07-07T14:12:28Z</time>
      </trkpt>
      <trkpt lat="43.65175" lon="-1.44529">
        <ele>8.31</ele>
        <time>2021-07-07T14:12:29Z</time>
      </trkpt>
      <trkpt lat="43.65179" lon="-1.44554">
        <ele>7.83</ele>
        <time>2021-07-07T14:12:36Z</time>
      </trkpt>
      <trkpt lat="43.65176" lon="-1.44556">
        <ele>7.83</ele>
        <time>2021-07-07T14:12:37Z</time>
      </trkpt>
      <trkpt lat="43.65173" lon="-1.44556">
        <ele>7.83</ele>
        <time>2021-07-07T14:12:38Z</time>
      </trkpt>
      <trkpt lat="43.65122" lon="-1.44558">
        <ele>10.23</ele>
        <time>2021-07-07T14:12:49Z</time>
      </trkpt>
      <trkpt lat="43.65078" lon="-1.4456">
        <ele>11.67</ele>
        <time>2021-07-07T14:13:01Z</time>
      </trkpt>
      <trkpt lat="43.65037" lon="-1.44533">
        <ele>12.15</ele>
        <time>2021-07-07T14:13:14Z</time>
      </trkpt>
      <trkpt lat="43.64992" lon="-1.44455">
        <ele>9.27</ele>
        <time>2021-07-07T14:13:30Z</time>
      </trkpt>
      <trkpt lat="43.64969" lon="-1.44416">
        <ele>9.27</ele>
        <time>2021-07-07T14:13:39Z</time>
      </trkpt>
      <trkpt lat="43.64966" lon="-1.44411">
        <ele>9.27</ele>
        <time>2021-07-07T14:13:40Z</time>
      </trkpt>
      <trkpt lat="43.64964" lon="-1.44408">
        <ele>9.75</ele>
        <time>2021-07-07T14:13:41Z</time>
      </trkpt>
      <trkpt lat="43.6496" lon="-1.44407">
        <ele>9.75</ele>
        <time>2021-07-07T14:13:42Z</time>
      </trkpt>
      <trkpt lat="43.64957" lon="-1.44407">
        <ele>10.23</ele>
        <time>2021-07-07T14:13:43Z</time>
      </trkpt>
      <trkpt lat="43.64952" lon="-1.44403">
        <ele>10.23</ele>
        <time>2021-07-07T14:13:44Z</time>
      </trkpt>
      <trkpt lat="43.6495" lon="-1.44399">
        <ele>10.23</ele>
        <time>2021-07-07T14:13:45Z</time>
      </trkpt>
      <trkpt lat="43.64952" lon="-1.44395">
        <ele>10.23</ele>
        <time>2021-07-07T14:13:46Z</time>
      </trkpt>
      <trkpt lat="43.64953" lon="-1.4439">
        <ele>10.23</ele>
        <time>2021-07-07T14:13:47Z</time>
      </trkpt>
      <trkpt lat="43.64952" lon="-1.44382">
        <ele>10.23</ele>
        <time>2021-07-07T14:13:48Z</time>
      </trkpt>
      <trkpt lat="43.64951" lon="-1.44378">
        <ele>10.23</ele>
        <time>2021-07-07T14:13:49Z</time>
      </trkpt>
      <trkpt lat="43.64949" lon="-1.44372">
        <ele>10.71</ele>
        <time>2021-07-07T14:13:50Z</time>
      </trkpt>
      <trkpt lat="43.64948" lon="-1.44367">
        <ele>10.23</ele>
        <time>2021-07-07T14:13:51Z</time>
      </trkpt>
      <trkpt lat="43.64945" lon="-1.44362">
        <ele>10.23</ele>
        <time>2021-07-07T14:13:52Z</time>
      </trkpt>
      <trkpt lat="43.64942" lon="-1.44357">
        <ele>9.75</ele>
        <time>2021-07-07T14:13:53Z</time>
      </trkpt>
      <trkpt lat="43.64895" lon="-1.44273">
        <ele>6.39</ele>
        <time>2021-07-07T14:14:08Z</time>
      </trkpt>
      <trkpt lat="43.64841" lon="-1.44182">
        <ele>5.91</ele>
        <time>2021-07-07T14:14:22Z</time>
      </trkpt>
      <trkpt lat="43.64821" lon="-1.44144">
        <ele>5.42</ele>
        <time>2021-07-07T14:14:27Z</time>
      </trkpt>
      <trkpt lat="43.64764" lon="-1.44038">
        <ele>6.87</ele>
        <time>2021-07-07T14:14:38Z</time>
      </trkpt>
      <trkpt lat="43.64703" lon="-1.43933">
        <ele>7.83</ele>
        <time>2021-07-07T14:14:52Z</time>
      </trkpt>
      <trkpt lat="43.64628" lon="-1.43805">
        <ele>4.46</ele>
        <time>2021-07-07T14:15:07Z</time>
      </trkpt>
      <trkpt lat="43.64565" lon="-1.4369">
        <ele>4.94</ele>
        <time>2021-07-07T14:15:19Z</time>
      </trkpt>
      <trkpt lat="43.64494" lon="-1.4357">
        <ele>5.42</ele>
        <time>2021-07-07T14:15:31Z</time>
      </trkpt>
      <trkpt lat="43.64443" lon="-1.43448">
        <ele>4.94</ele>
        <time>2021-07-07T14:15:45Z</time>
      </trkpt>
      <trkpt lat="43.64416" lon="-1.43348">
        <ele>5.42</ele>
        <time>2021-07-07T14:15:58Z</time>
      </trkpt>
      <trkpt lat="43.64413" lon="-1.43328">
        <ele>5.91</ele>
        <time>2021-07-07T14:16:08Z</time>
      </trkpt>
      <trkpt lat="43.64409" lon="-1.43291">
        <ele>5.91</ele>
        <time>2021-07-07T14:16:18Z</time>
      </trkpt>
      <trkpt lat="43.64407" lon="-1.43257">
        <ele>6.39</ele>
        <time>2021-07-07T14:16:29Z</time>
      </trkpt>
      <trkpt lat="43.64407" lon="-1.43257">
        <ele>7.35</ele>
        <time>2021-07-07T14:16:34Z</time>
      </trkpt>
      <trkpt lat="43.64409" lon="-1.43253">
        <ele>7.35</ele>
        <time>2021-07-07T14:16:35Z</time>
      </trkpt>
      <trkpt lat="43.64411" lon="-1.43252">
        <ele>7.35</ele>
        <time>2021-07-07T14:16:36Z</time>
      </trkpt>
      <trkpt lat="43.64464" lon="-1.43233">
        <ele>6.87</ele>
        <time>2021-07-07T14:16:46Z</time>
      </trkpt>
      <trkpt lat="43.6455" lon="-1.43185">
        <ele>7.83</ele>
        <time>2021-07-07T14:16:58Z</time>
      </trkpt>
      <trkpt lat="43.64584" lon="-1.43174">
        <ele>7.83</ele>
        <time>2021-07-07T14:17:07Z</time>
      </trkpt>
      <trkpt lat="43.64607" lon="-1.43167">
        <ele>6.87</ele>
        <time>2021-07-07T14:17:18Z</time>
      </trkpt>
      <trkpt lat="43.64618" lon="-1.43164">
        <ele>6.87</ele>
        <time>2021-07-07T14:17:20Z</time>
      </trkpt>
      <trkpt lat="43.64711" lon="-1.43149">
        <ele>3.98</ele>
        <time>2021-07-07T14:17:31Z</time>
      </trkpt>
      <trkpt lat="43.64802" lon="-1.43129">
        <ele>1.1</ele>
        <time>2021-07-07T14:17:41Z</time>
      </trkpt>
      <trkpt lat="43.64812" lon="-1.43126">
        <ele>1.1</ele>
        <time>2021-07-07T14:17:42Z</time>
      </trkpt>
      <trkpt lat="43.64827" lon="-1.43115">
        <ele>1.1</ele>
        <time>2021-07-07T14:17:43Z</time>
      </trkpt>
      <trkpt lat="43.64895" lon="-1.43062">
        <ele>-0.34</ele>
        <time>2021-07-07T14:17:53Z</time>
      </trkpt>
      <trkpt lat="43.64903" lon="-1.43059">
        <ele>-0.82</ele>
        <time>2021-07-07T14:17:54Z</time>
      </trkpt>
      <trkpt lat="43.6491" lon="-1.43056">
        <ele>-1.3</ele>
        <time>2021-07-07T14:17:55Z</time>
      </trkpt>
      <trkpt lat="43.64919" lon="-1.43057">
        <ele>-1.3</ele>
        <time>2021-07-07T14:17:56Z</time>
      </trkpt>
      <trkpt lat="43.64928" lon="-1.43059">
        <ele>-1.79</ele>
        <time>2021-07-07T14:17:57Z</time>
      </trkpt>
      <trkpt lat="43.64937" lon="-1.4306">
        <ele>-2.27</ele>
        <time>2021-07-07T14:17:58Z</time>
      </trkpt>
      <trkpt lat="43.65047" lon="-1.43093">
        <ele>-6.59</ele>
        <time>2021-07-07T14:18:09Z</time>
      </trkpt>
      <trkpt lat="43.6508" lon="-1.43105">
        <ele>-7.55</ele>
        <time>2021-07-07T14:18:15Z</time>
      </trkpt>
      <trkpt lat="43.6509" lon="-1.4311">
        <ele>-7.55</ele>
        <time>2021-07-07T14:18:16Z</time>
      </trkpt>
      <trkpt lat="43.65097" lon="-1.43107">
        <ele>-7.07</ele>
        <time>2021-07-07T14:18:17Z</time>
      </trkpt>
      <trkpt lat="43.65174" lon="-1.43074">
        <ele>-3.23</ele>
        <time>2021-07-07T14:18:29Z</time>
      </trkpt>
      <trkpt lat="43.65178" lon="-1.43072">
        <ele>-2.75</ele>
        <time>2021-07-07T14:18:30Z</time>
      </trkpt>
      <trkpt lat="43.65182" lon="-1.43069">
        <ele>-2.75</ele>
        <time>2021-07-07T14:18:31Z</time>
      </trkpt>
      <trkpt lat="43.65187" lon="-1.43063">
        <ele>-2.75</ele>
        <time>2021-07-07T14:18:32Z</time>
      </trkpt>
      <trkpt lat="43.65187" lon="-1.43063">
        <ele>-2.75</ele>
        <time>2021-07-07T14:18:33Z</time>
      </trkpt>
      <trkpt lat="43.65187" lon="-1.43051">
        <ele>-3.23</ele>
        <time>2021-07-07T14:18:34Z</time>
      </trkpt>
      <trkpt lat="43.65187" lon="-1.43051">
        <ele>-3.23</ele>
        <time>2021-07-07T14:18:35Z</time>
      </trkpt>
      <trkpt lat="43.65186" lon="-1.43043">
        <ele>-3.71</ele>
        <time>2021-07-07T14:18:36Z</time>
      </trkpt>
      <trkpt lat="43.65168" lon="-1.4292">
        <ele>-2.75</ele>
        <time>2021-07-07T14:18:47Z</time>
      </trkpt>
      <trkpt lat="43.65167" lon="-1.42895">
        <ele>-3.23</ele>
        <time>2021-07-07T14:18:49Z</time>
      </trkpt>
      <trkpt lat="43.65167" lon="-1.42883">
        <ele>-2.75</ele>
        <time>2021-07-07T14:18:50Z</time>
      </trkpt>
      <trkpt lat="43.65167" lon="-1.4287">
        <ele>-2.75</ele>
        <time>2021-07-07T14:18:51Z</time>
      </trkpt>
      <trkpt lat="43.65169" lon="-1.42857">
        <ele>-2.27</ele>
        <time>2021-07-07T14:18:52Z</time>
      </trkpt>
      <trkpt lat="43.65171" lon="-1.42845">
        <ele>-1.79</ele>
        <time>2021-07-07T14:18:53Z</time>
      </trkpt>
      <trkpt lat="43.65175" lon="-1.42824">
        <ele>-0.82</ele>
        <time>2021-07-07T14:18:55Z</time>
      </trkpt>
      <trkpt lat="43.65177" lon="-1.42803">
        <ele>-0.34</ele>
        <time>2021-07-07T14:18:57Z</time>
      </trkpt>
      <trkpt lat="43.65176" lon="-1.42783">
        <ele>-0.34</ele>
        <time>2021-07-07T14:18:59Z</time>
      </trkpt>
      <trkpt lat="43.65175" lon="-1.42774">
        <ele>-0.34</ele>
        <time>2021-07-07T14:19:00Z</time>
      </trkpt>
      <trkpt lat="43.65172" lon="-1.42757">
        <ele>-0.34</ele>
        <time>2021-07-07T14:19:02Z</time>
      </trkpt>
      <trkpt lat="43.65171" lon="-1.4275">
        <ele>-0.34</ele>
        <time>2021-07-07T14:19:03Z</time>
      </trkpt>
      <trkpt lat="43.65152" lon="-1.42732">
        <ele>0.62</ele>
        <time>2021-07-07T14:19:09Z</time>
      </trkpt>
      <trkpt lat="43.65152" lon="-1.42732">
        <ele>0.62</ele>
        <time>2021-07-07T14:19:10Z</time>
      </trkpt>
      <trkpt lat="43.65151" lon="-1.42727">
        <ele>0.62</ele>
        <time>2021-07-07T14:19:11Z</time>
      </trkpt>
      <trkpt lat="43.6515" lon="-1.4272">
        <ele>0.62</ele>
        <time>2021-07-07T14:19:12Z</time>
      </trkpt>
      <trkpt lat="43.65151" lon="-1.42714">
        <ele>0.62</ele>
        <time>2021-07-07T14:19:13Z</time>
      </trkpt>
      <trkpt lat="43.65155" lon="-1.4271">
        <ele>0.14</ele>
        <time>2021-07-07T14:19:14Z</time>
      </trkpt>
      <trkpt lat="43.65165" lon="-1.42708">
        <ele>0.14</ele>
        <time>2021-07-07T14:19:15Z</time>
      </trkpt>
      <trkpt lat="43.65171" lon="-1.42711">
        <ele>0.14</ele>
        <time>2021-07-07T14:19:16Z</time>
      </trkpt>
      <trkpt lat="43.65171" lon="-1.42711">
        <ele>-0.34</ele>
        <time>2021-07-07T14:19:17Z</time>
      </trkpt>
      <trkpt lat="43.65183" lon="-1.42724">
        <ele>-0.82</ele>
        <time>2021-07-07T14:19:19Z</time>
      </trkpt>
      <trkpt lat="43.6519" lon="-1.42723">
        <ele>-0.82</ele>
        <time>2021-07-07T14:19:20Z</time>
      </trkpt>
      <trkpt lat="43.65298" lon="-1.42722">
        <ele>-1.3</ele>
        <time>2021-07-07T14:19:34Z</time>
      </trkpt>
      <trkpt lat="43.65308" lon="-1.42722">
        <ele>-0.82</ele>
        <time>2021-07-07T14:19:36Z</time>
      </trkpt>
      <trkpt lat="43.65313" lon="-1.42722">
        <ele>-0.82</ele>
        <time>2021-07-07T14:19:37Z</time>
      </trkpt>
      <trkpt lat="43.65324" lon="-1.42703">
        <ele>0.14</ele>
        <time>2021-07-07T14:19:39Z</time>
      </trkpt>
      <trkpt lat="43.65332" lon="-1.42704">
        <ele>0.14</ele>
        <time>2021-07-07T14:19:40Z</time>
      </trkpt>
      <trkpt lat="43.65332" lon="-1.42704">
        <ele>0.62</ele>
        <time>2021-07-07T14:19:41Z</time>
      </trkpt>
      <trkpt lat="43.65337" lon="-1.42705">
        <ele>0.62</ele>
        <time>2021-07-07T14:19:42Z</time>
      </trkpt>
      <trkpt lat="43.65348" lon="-1.42722">
        <ele>1.1</ele>
        <time>2021-07-07T14:19:43Z</time>
      </trkpt>
      <trkpt lat="43.65362" lon="-1.42722">
        <ele>2.06</ele>
        <time>2021-07-07T14:19:46Z</time>
      </trkpt>
      <trkpt lat="43.6537" lon="-1.42722">
        <ele>2.54</ele>
        <time>2021-07-07T14:19:47Z</time>
      </trkpt>
      <trkpt lat="43.65472" lon="-1.42723">
        <ele>2.54</ele>
        <time>2021-07-07T14:19:57Z</time>
      </trkpt>
      <trkpt lat="43.65603" lon="-1.42724">
        <ele>1.58</ele>
        <time>2021-07-07T14:20:10Z</time>
      </trkpt>
      <trkpt lat="43.65677" lon="-1.42724">
        <ele>1.58</ele>
        <time>2021-07-07T14:20:20Z</time>
      </trkpt>
      <trkpt lat="43.65773" lon="-1.42718">
        <ele>0.14</ele>
        <time>2021-07-07T14:20:33Z</time>
      </trkpt>
      <trkpt lat="43.65802" lon="-1.42711">
        <ele>0.14</ele>
        <time>2021-07-07T14:20:40Z</time>
      </trkpt>
      <trkpt lat="43.65804" lon="-1.42704">
        <ele>0.14</ele>
        <time>2021-07-07T14:20:41Z</time>
      </trkpt>
      <trkpt lat="43.65806" lon="-1.42698">
        <ele>-0.34</ele>
        <time>2021-07-07T14:20:42Z</time>
      </trkpt>
      <trkpt lat="43.65811" lon="-1.42693">
        <ele>0.14</ele>
        <time>2021-07-07T14:20:43Z</time>
      </trkpt>
      <trkpt lat="43.65812" lon="-1.42685">
        <ele>0.14</ele>
        <time>2021-07-07T14:20:44Z</time>
      </trkpt>
      <trkpt lat="43.65813" lon="-1.42677">
        <ele>0.62</ele>
        <time>2021-07-07T14:20:45Z</time>
      </trkpt>
      <trkpt lat="43.65816" lon="-1.42668">
        <ele>0.62</ele>
        <time>2021-07-07T14:20:46Z</time>
      </trkpt>
      <trkpt lat="43.65821" lon="-1.42661">
        <ele>0.62</ele>
        <time>2021-07-07T14:20:47Z</time>
      </trkpt>
      <trkpt lat="43.65826" lon="-1.42654">
        <ele>0.62</ele>
        <time>2021-07-07T14:20:48Z</time>
      </trkpt>
      <trkpt lat="43.65832" lon="-1.42648">
        <ele>0.62</ele>
        <time>2021-07-07T14:20:49Z</time>
      </trkpt>
      <trkpt lat="43.65838" lon="-1.42643">
        <ele>0.62</ele>
        <time>2021-07-07T14:20:50Z</time>
      </trkpt>
      <trkpt lat="43.65844" lon="-1.4264">
        <ele>0.62</ele>
        <time>2021-07-07T14:20:51Z</time>
      </trkpt>
      <trkpt lat="43.65852" lon="-1.42637">
        <ele>1.1</ele>
        <time>2021-07-07T14:20:52Z</time>
      </trkpt>
      <trkpt lat="43.65914" lon="-1.42609">
        <ele>3.5</ele>
        <time>2021-07-07T14:21:00Z</time>
      </trkpt>
      <trkpt lat="43.6592" lon="-1.42605">
        <ele>3.5</ele>
        <time>2021-07-07T14:21:01Z</time>
      </trkpt>
      <trkpt lat="43.65926" lon="-1.42598">
        <ele>3.98</ele>
        <time>2021-07-07T14:21:02Z</time>
      </trkpt>
      <trkpt lat="43.65967" lon="-1.4255">
        <ele>3.02</ele>
        <time>2021-07-07T14:21:09Z</time>
      </trkpt>
      <trkpt lat="43.65973" lon="-1.42543">
        <ele>3.02</ele>
        <time>2021-07-07T14:21:10Z</time>
      </trkpt>
      <trkpt lat="43.65978" lon="-1.42536">
        <ele>2.54</ele>
        <time>2021-07-07T14:21:11Z</time>
      </trkpt>
      <trkpt lat="43.66021" lon="-1.42508">
        <ele>3.02</ele>
        <time>2021-07-07T14:21:17Z</time>
      </trkpt>
      <trkpt lat="43.66028" lon="-1.42506">
        <ele>3.02</ele>
        <time>2021-07-07T14:21:18Z</time>
      </trkpt>
      <trkpt lat="43.66062" lon="-1.42499">
        <ele>3.5</ele>
        <time>2021-07-07T14:21:25Z</time>
      </trkpt>
      <trkpt lat="43.66076" lon="-1.42496">
        <ele>3.02</ele>
        <time>2021-07-07T14:21:29Z</time>
      </trkpt>
      <trkpt lat="43.66078" lon="-1.42483">
        <ele>2.54</ele>
        <time>2021-07-07T14:21:30Z</time>
      </trkpt>
      <trkpt lat="43.66085" lon="-1.42479">
        <ele>2.54</ele>
        <time>2021-07-07T14:21:31Z</time>
      </trkpt>
      <trkpt lat="43.66085" lon="-1.42479">
        <ele>2.54</ele>
        <time>2021-07-07T14:21:32Z</time>
      </trkpt>
      <trkpt lat="43.6609" lon="-1.42479">
        <ele>3.02</ele>
        <time>2021-07-07T14:21:33Z</time>
      </trkpt>
      <trkpt lat="43.66094" lon="-1.42479">
        <ele>2.54</ele>
        <time>2021-07-07T14:21:34Z</time>
      </trkpt>
      <trkpt lat="43.66098" lon="-1.42479">
        <ele>2.54</ele>
        <time>2021-07-07T14:21:35Z</time>
      </trkpt>
      <trkpt lat="43.66098" lon="-1.42479">
        <ele>3.02</ele>
        <time>2021-07-07T14:21:36Z</time>
      </trkpt>
      <trkpt lat="43.66115" lon="-1.42473">
        <ele>3.5</ele>
        <time>2021-07-07T14:21:37Z</time>
      </trkpt>
      <trkpt lat="43.66115" lon="-1.42473">
        <ele>3.5</ele>
        <time>2021-07-07T14:21:38Z</time>
      </trkpt>
      <trkpt lat="43.66119" lon="-1.42467">
        <ele>3.5</ele>
        <time>2021-07-07T14:21:39Z</time>
      </trkpt>
      <trkpt lat="43.66143" lon="-1.42435">
        <ele>3.5</ele>
        <time>2021-07-07T14:21:44Z</time>
      </trkpt>
      <trkpt lat="43.66147" lon="-1.42428">
        <ele>3.5</ele>
        <time>2021-07-07T14:21:45Z</time>
      </trkpt>
      <trkpt lat="43.66154" lon="-1.42415">
        <ele>3.02</ele>
        <time>2021-07-07T14:21:46Z</time>
      </trkpt>
      <trkpt lat="43.66175" lon="-1.42359">
        <ele>2.54</ele>
        <time>2021-07-07T14:21:57Z</time>
      </trkpt>
      <trkpt lat="43.66183" lon="-1.42331">
        <ele>3.02</ele>
        <time>2021-07-07T14:22:10Z</time>
      </trkpt>
      <trkpt lat="43.66198" lon="-1.42256">
        <ele>2.54</ele>
        <time>2021-07-07T14:22:17Z</time>
      </trkpt>
      <trkpt lat="43.66206" lon="-1.42194">
        <ele>2.06</ele>
        <time>2021-07-07T14:22:22Z</time>
      </trkpt>
      <trkpt lat="43.66213" lon="-1.4217">
        <ele>2.54</ele>
        <time>2021-07-07T14:22:23Z</time>
      </trkpt>
      <trkpt lat="43.66213" lon="-1.4217">
        <ele>3.02</ele>
        <time>2021-07-07T14:22:24Z</time>
      </trkpt>
      <trkpt lat="43.66218" lon="-1.42158">
        <ele>3.02</ele>
        <time>2021-07-07T14:22:25Z</time>
      </trkpt>
      <trkpt lat="43.66223" lon="-1.42147">
        <ele>3.02</ele>
        <time>2021-07-07T14:22:26Z</time>
      </trkpt>
      <trkpt lat="43.66228" lon="-1.42138">
        <ele>3.5</ele>
        <time>2021-07-07T14:22:27Z</time>
      </trkpt>
      <trkpt lat="43.66235" lon="-1.4213">
        <ele>3.5</ele>
        <time>2021-07-07T14:22:28Z</time>
      </trkpt>
      <trkpt lat="43.66248" lon="-1.42114">
        <ele>3.5</ele>
        <time>2021-07-07T14:22:29Z</time>
      </trkpt>
      <trkpt lat="43.66279" lon="-1.42099">
        <ele>2.54</ele>
        <time>2021-07-07T14:22:34Z</time>
      </trkpt>
      <trkpt lat="43.66286" lon="-1.42096">
        <ele>2.54</ele>
        <time>2021-07-07T14:22:35Z</time>
      </trkpt>
      <trkpt lat="43.66292" lon="-1.42084">
        <ele>2.54</ele>
        <time>2021-07-07T14:22:36Z</time>
      </trkpt>
      <trkpt lat="43.66293" lon="-1.4208">
        <ele>2.54</ele>
        <time>2021-07-07T14:22:37Z</time>
      </trkpt>
      <trkpt lat="43.66307" lon="-1.4207">
        <ele>3.02</ele>
        <time>2021-07-07T14:22:38Z</time>
      </trkpt>
      <trkpt lat="43.66309" lon="-1.42059">
        <ele>3.02</ele>
        <time>2021-07-07T14:22:39Z</time>
      </trkpt>
      <trkpt lat="43.66311" lon="-1.42048">
        <ele>3.02</ele>
        <time>2021-07-07T14:22:40Z</time>
      </trkpt>
      <trkpt lat="43.66313" lon="-1.42035">
        <ele>3.5</ele>
        <time>2021-07-07T14:22:41Z</time>
      </trkpt>
      <trkpt lat="43.66315" lon="-1.42021">
        <ele>3.5</ele>
        <time>2021-07-07T14:22:42Z</time>
      </trkpt>
      <trkpt lat="43.66317" lon="-1.42005">
        <ele>3.02</ele>
        <time>2021-07-07T14:22:43Z</time>
      </trkpt>
      <trkpt lat="43.66317" lon="-1.41957">
        <ele>4.46</ele>
        <time>2021-07-07T14:22:46Z</time>
      </trkpt>
      <trkpt lat="43.66317" lon="-1.41941">
        <ele>4.46</ele>
        <time>2021-07-07T14:22:47Z</time>
      </trkpt>
      <trkpt lat="43.66316" lon="-1.41926">
        <ele>3.98</ele>
        <time>2021-07-07T14:22:48Z</time>
      </trkpt>
      <trkpt lat="43.66311" lon="-1.41912">
        <ele>5.42</ele>
        <time>2021-07-07T14:22:49Z</time>
      </trkpt>
      <trkpt lat="43.66307" lon="-1.41898">
        <ele>5.42</ele>
        <time>2021-07-07T14:22:50Z</time>
      </trkpt>
      <trkpt lat="43.66257" lon="-1.4172">
        <ele>13.12</ele>
        <time>2021-07-07T14:23:01Z</time>
      </trkpt>
      <trkpt lat="43.66255" lon="-1.41707">
        <ele>14.08</ele>
        <time>2021-07-07T14:23:02Z</time>
      </trkpt>
      <trkpt lat="43.66256" lon="-1.41694">
        <ele>16</ele>
        <time>2021-07-07T14:23:03Z</time>
      </trkpt>
      <trkpt lat="43.66261" lon="-1.4167">
        <ele>17.44</ele>
        <time>2021-07-07T14:23:04Z</time>
      </trkpt>
      <trkpt lat="43.66261" lon="-1.4167">
        <ele>18.4</ele>
        <time>2021-07-07T14:23:05Z</time>
      </trkpt>
      <trkpt lat="43.66275" lon="-1.41654">
        <ele>20.32</ele>
        <time>2021-07-07T14:23:06Z</time>
      </trkpt>
      <trkpt lat="43.66282" lon="-1.41646">
        <ele>20.81</ele>
        <time>2021-07-07T14:23:07Z</time>
      </trkpt>
      <trkpt lat="43.66291" lon="-1.41639">
        <ele>20.81</ele>
        <time>2021-07-07T14:23:08Z</time>
      </trkpt>
      <trkpt lat="43.66291" lon="-1.41639">
        <ele>20.32</ele>
        <time>2021-07-07T14:23:09Z</time>
      </trkpt>
      <trkpt lat="43.66299" lon="-1.41631">
        <ele>20.32</ele>
        <time>2021-07-07T14:23:10Z</time>
      </trkpt>
      <trkpt lat="43.66316" lon="-1.41611">
        <ele>18.88</ele>
        <time>2021-07-07T14:23:12Z</time>
      </trkpt>
      <trkpt lat="43.66328" lon="-1.41591">
        <ele>17.92</ele>
        <time>2021-07-07T14:23:13Z</time>
      </trkpt>
      <trkpt lat="43.66328" lon="-1.41591">
        <ele>16.48</ele>
        <time>2021-07-07T14:23:14Z</time>
      </trkpt>
      <trkpt lat="43.66337" lon="-1.4157">
        <ele>16</ele>
        <time>2021-07-07T14:23:15Z</time>
      </trkpt>
      <trkpt lat="43.66337" lon="-1.4157">
        <ele>15.04</ele>
        <time>2021-07-07T14:23:16Z</time>
      </trkpt>
      <trkpt lat="43.66344" lon="-1.41552">
        <ele>12.63</ele>
        <time>2021-07-07T14:23:18Z</time>
      </trkpt>
      <trkpt lat="43.66347" lon="-1.41544">
        <ele>12.15</ele>
        <time>2021-07-07T14:23:19Z</time>
      </trkpt>
      <trkpt lat="43.66345" lon="-1.41514">
        <ele>10.71</ele>
        <time>2021-07-07T14:23:21Z</time>
      </trkpt>
      <trkpt lat="43.66345" lon="-1.41514">
        <ele>9.75</ele>
        <time>2021-07-07T14:23:22Z</time>
      </trkpt>
      <trkpt lat="43.6635" lon="-1.41509">
        <ele>9.75</ele>
        <time>2021-07-07T14:23:23Z</time>
      </trkpt>
      <trkpt lat="43.66355" lon="-1.41505">
        <ele>8.31</ele>
        <time>2021-07-07T14:23:24Z</time>
      </trkpt>
      <trkpt lat="43.66368" lon="-1.41511">
        <ele>7.83</ele>
        <time>2021-07-07T14:23:25Z</time>
      </trkpt>
      <trkpt lat="43.6638" lon="-1.41518">
        <ele>7.35</ele>
        <time>2021-07-07T14:23:26Z</time>
      </trkpt>
      <trkpt lat="43.66459" lon="-1.41511">
        <ele>4.94</ele>
        <time>2021-07-07T14:23:34Z</time>
      </trkpt>
      <trkpt lat="43.6651" lon="-1.41522">
        <ele>4.94</ele>
        <time>2021-07-07T14:23:38Z</time>
      </trkpt>
      <trkpt lat="43.6651" lon="-1.41522">
        <ele>5.91</ele>
        <time>2021-07-07T14:23:39Z</time>
      </trkpt>
      <trkpt lat="43.66525" lon="-1.41541">
        <ele>5.91</ele>
        <time>2021-07-07T14:23:40Z</time>
      </trkpt>
      <trkpt lat="43.66529" lon="-1.41551">
        <ele>5.42</ele>
        <time>2021-07-07T14:23:41Z</time>
      </trkpt>
      <trkpt lat="43.66535" lon="-1.41564">
        <ele>5.91</ele>
        <time>2021-07-07T14:23:42Z</time>
      </trkpt>
      <trkpt lat="43.66535" lon="-1.41564">
        <ele>5.91</ele>
        <time>2021-07-07T14:23:43Z</time>
      </trkpt>
      <trkpt lat="43.66623" lon="-1.41754">
        <ele>3.5</ele>
        <time>2021-07-07T14:23:56Z</time>
      </trkpt>
      <trkpt lat="43.66678" lon="-1.41882">
        <ele>2.54</ele>
        <time>2021-07-07T14:24:06Z</time>
      </trkpt>
      <trkpt lat="43.66694" lon="-1.41912">
        <ele>2.54</ele>
        <time>2021-07-07T14:24:10Z</time>
      </trkpt>
      <trkpt lat="43.66702" lon="-1.41919">
        <ele>2.54</ele>
        <time>2021-07-07T14:24:11Z</time>
      </trkpt>
      <trkpt lat="43.6671" lon="-1.41926">
        <ele>2.54</ele>
        <time>2021-07-07T14:24:12Z</time>
      </trkpt>
      <trkpt lat="43.66717" lon="-1.41932">
        <ele>2.54</ele>
        <time>2021-07-07T14:24:13Z</time>
      </trkpt>
      <trkpt lat="43.66728" lon="-1.41934">
        <ele>1.1</ele>
        <time>2021-07-07T14:24:14Z</time>
      </trkpt>
      <trkpt lat="43.66739" lon="-1.41935">
        <ele>0.62</ele>
        <time>2021-07-07T14:24:15Z</time>
      </trkpt>
      <trkpt lat="43.66748" lon="-1.41936">
        <ele>1.1</ele>
        <time>2021-07-07T14:24:16Z</time>
      </trkpt>
      <trkpt lat="43.66759" lon="-1.41934">
        <ele>1.58</ele>
        <time>2021-07-07T14:24:17Z</time>
      </trkpt>
      <trkpt lat="43.66899" lon="-1.41904">
        <ele>4.46</ele>
        <time>2021-07-07T14:24:28Z</time>
      </trkpt>
      <trkpt lat="43.66995" lon="-1.41872">
        <ele>7.35</ele>
        <time>2021-07-07T14:24:36Z</time>
      </trkpt>
      <trkpt lat="43.67095" lon="-1.41796">
        <ele>9.27</ele>
        <time>2021-07-07T14:24:46Z</time>
      </trkpt>
      <trkpt lat="43.6712" lon="-1.41776">
        <ele>9.27</ele>
        <time>2021-07-07T14:24:50Z</time>
      </trkpt>
      <trkpt lat="43.67123" lon="-1.41773">
        <ele>9.27</ele>
        <time>2021-07-07T14:24:51Z</time>
      </trkpt>
      <trkpt lat="43.67123" lon="-1.41762">
        <ele>9.75</ele>
        <time>2021-07-07T14:24:52Z</time>
      </trkpt>
      <trkpt lat="43.67127" lon="-1.41753">
        <ele>10.23</ele>
        <time>2021-07-07T14:24:53Z</time>
      </trkpt>
      <trkpt lat="43.67139" lon="-1.41749">
        <ele>9.27</ele>
        <time>2021-07-07T14:24:54Z</time>
      </trkpt>
      <trkpt lat="43.67139" lon="-1.41749">
        <ele>9.27</ele>
        <time>2021-07-07T14:24:55Z</time>
      </trkpt>
      <trkpt lat="43.67153" lon="-1.41755">
        <ele>9.27</ele>
        <time>2021-07-07T14:24:56Z</time>
      </trkpt>
      <trkpt lat="43.67153" lon="-1.41755">
        <ele>8.79</ele>
        <time>2021-07-07T14:24:57Z</time>
      </trkpt>
      <trkpt lat="43.67167" lon="-1.41747">
        <ele>9.27</ele>
        <time>2021-07-07T14:24:58Z</time>
      </trkpt>
      <trkpt lat="43.67167" lon="-1.41747">
        <ele>9.27</ele>
        <time>2021-07-07T14:24:59Z</time>
      </trkpt>
      <trkpt lat="43.67193" lon="-1.41732">
        <ele>7.83</ele>
        <time>2021-07-07T14:25:02Z</time>
      </trkpt>
      <trkpt lat="43.67203" lon="-1.41726">
        <ele>8.31</ele>
        <time>2021-07-07T14:25:03Z</time>
      </trkpt>
      <trkpt lat="43.67212" lon="-1.41723">
        <ele>9.27</ele>
        <time>2021-07-07T14:25:04Z</time>
      </trkpt>
      <trkpt lat="43.67235" lon="-1.41721">
        <ele>11.19</ele>
        <time>2021-07-07T14:25:06Z</time>
      </trkpt>
      <trkpt lat="43.67247" lon="-1.4172">
        <ele>11.67</ele>
        <time>2021-07-07T14:25:07Z</time>
      </trkpt>
      <trkpt lat="43.67376" lon="-1.41747">
        <ele>9.75</ele>
        <time>2021-07-07T14:25:15Z</time>
      </trkpt>
      <trkpt lat="43.67616" lon="-1.41802">
        <ele>11.19</ele>
        <time>2021-07-07T14:25:28Z</time>
      </trkpt>
      <trkpt lat="43.67905" lon="-1.41867">
        <ele>9.27</ele>
        <time>2021-07-07T14:25:43Z</time>
      </trkpt>
      <trkpt lat="43.67984" lon="-1.41885">
        <ele>9.75</ele>
        <time>2021-07-07T14:25:47Z</time>
      </trkpt>
      <trkpt lat="43.68001" lon="-1.41895">
        <ele>10.23</ele>
        <time>2021-07-07T14:25:48Z</time>
      </trkpt>
      <trkpt lat="43.68154" lon="-1.42017">
        <ele>9.75</ele>
        <time>2021-07-07T14:25:56Z</time>
      </trkpt>
      <trkpt lat="43.68344" lon="-1.42175">
        <ele>16.96</ele>
        <time>2021-07-07T14:26:09Z</time>
      </trkpt>
      <trkpt lat="43.68398" lon="-1.42219">
        <ele>19.84</ele>
        <time>2021-07-07T14:26:13Z</time>
      </trkpt>
      <trkpt lat="43.68409" lon="-1.42233">
        <ele>19.36</ele>
        <time>2021-07-07T14:26:14Z</time>
      </trkpt>
      <trkpt lat="43.68419" lon="-1.42247">
        <ele>18.88</ele>
        <time>2021-07-07T14:26:15Z</time>
      </trkpt>
      <trkpt lat="43.68429" lon="-1.42262">
        <ele>17.92</ele>
        <time>2021-07-07T14:26:16Z</time>
      </trkpt>
      <trkpt lat="43.68436" lon="-1.42279">
        <ele>16.48</ele>
        <time>2021-07-07T14:26:17Z</time>
      </trkpt>
      <trkpt lat="43.68445" lon="-1.42297">
        <ele>15.04</ele>
        <time>2021-07-07T14:26:18Z</time>
      </trkpt>
      <trkpt lat="43.68454" lon="-1.42318">
        <ele>13.6</ele>
        <time>2021-07-07T14:26:19Z</time>
      </trkpt>
      <trkpt lat="43.68511" lon="-1.42449">
        <ele>5.42</ele>
        <time>2021-07-07T14:26:26Z</time>
      </trkpt>
      <trkpt lat="43.6852" lon="-1.42466">
        <ele>3.98</ele>
        <time>2021-07-07T14:26:27Z</time>
      </trkpt>
      <trkpt lat="43.68531" lon="-1.4248">
        <ele>3.5</ele>
        <time>2021-07-07T14:26:28Z</time>
      </trkpt>
      <trkpt lat="43.68544" lon="-1.42494">
        <ele>2.54</ele>
        <time>2021-07-07T14:26:29Z</time>
      </trkpt>
      <trkpt lat="43.68556" lon="-1.42506">
        <ele>2.06</ele>
        <time>2021-07-07T14:26:30Z</time>
      </trkpt>
      <trkpt lat="43.68571" lon="-1.42515">
        <ele>3.5</ele>
        <time>2021-07-07T14:26:31Z</time>
      </trkpt>
      <trkpt lat="43.68586" lon="-1.42524">
        <ele>3.98</ele>
        <time>2021-07-07T14:26:32Z</time>
      </trkpt>
      <trkpt lat="43.68601" lon="-1.4253">
        <ele>3.5</ele>
        <time>2021-07-07T14:26:33Z</time>
      </trkpt>
      <trkpt lat="43.68632" lon="-1.42539">
        <ele>3.02</ele>
        <time>2021-07-07T14:26:34Z</time>
      </trkpt>
      <trkpt lat="43.688" lon="-1.42541">
        <ele>6.39</ele>
        <time>2021-07-07T14:26:45Z</time>
      </trkpt>
      <trkpt lat="43.68975" lon="-1.42541">
        <ele>8.31</ele>
        <time>2021-07-07T14:26:56Z</time>
      </trkpt>
      <trkpt lat="43.69139" lon="-1.42542">
        <ele>9.75</ele>
        <time>2021-07-07T14:27:07Z</time>
      </trkpt>
      <trkpt lat="43.69237" lon="-1.42539">
        <ele>7.83</ele>
        <time>2021-07-07T14:27:15Z</time>
      </trkpt>
      <trkpt lat="43.69262" lon="-1.4253">
        <ele>6.39</ele>
        <time>2021-07-07T14:27:21Z</time>
      </trkpt>
      <trkpt lat="43.69269" lon="-1.42519">
        <ele>5.42</ele>
        <time>2021-07-07T14:27:24Z</time>
      </trkpt>
      <trkpt lat="43.69276" lon="-1.42514">
        <ele>5.91</ele>
        <time>2021-07-07T14:27:25Z</time>
      </trkpt>
      <trkpt lat="43.69281" lon="-1.42513">
        <ele>6.39</ele>
        <time>2021-07-07T14:27:26Z</time>
      </trkpt>
      <trkpt lat="43.69293" lon="-1.42515">
        <ele>6.39</ele>
        <time>2021-07-07T14:27:27Z</time>
      </trkpt>
      <trkpt lat="43.69293" lon="-1.42515">
        <ele>5.91</ele>
        <time>2021-07-07T14:27:28Z</time>
      </trkpt>
      <trkpt lat="43.69298" lon="-1.42519">
        <ele>5.91</ele>
        <time>2021-07-07T14:27:29Z</time>
      </trkpt>
      <trkpt lat="43.69302" lon="-1.42524">
        <ele>5.91</ele>
        <time>2021-07-07T14:27:30Z</time>
      </trkpt>
      <trkpt lat="43.69305" lon="-1.42531">
        <ele>5.91</ele>
        <time>2021-07-07T14:27:31Z</time>
      </trkpt>
      <trkpt lat="43.69306" lon="-1.42539">
        <ele>6.39</ele>
        <time>2021-07-07T14:27:32Z</time>
      </trkpt>
      <trkpt lat="43.69306" lon="-1.42548">
        <ele>6.39</ele>
        <time>2021-07-07T14:27:33Z</time>
      </trkpt>
      <trkpt lat="43.69305" lon="-1.42555">
        <ele>6.39</ele>
        <time>2021-07-07T14:27:34Z</time>
      </trkpt>
      <trkpt lat="43.69301" lon="-1.42563">
        <ele>5.91</ele>
        <time>2021-07-07T14:27:35Z</time>
      </trkpt>
      <trkpt lat="43.69296" lon="-1.4257">
        <ele>5.42</ele>
        <time>2021-07-07T14:27:36Z</time>
      </trkpt>
      <trkpt lat="43.69294" lon="-1.42584">
        <ele>5.42</ele>
        <time>2021-07-07T14:27:37Z</time>
      </trkpt>
      <trkpt lat="43.69295" lon="-1.42594">
        <ele>5.42</ele>
        <time>2021-07-07T14:27:38Z</time>
      </trkpt>
      <trkpt lat="43.69299" lon="-1.42604">
        <ele>4.94</ele>
        <time>2021-07-07T14:27:39Z</time>
      </trkpt>
      <trkpt lat="43.69303" lon="-1.42614">
        <ele>4.94</ele>
        <time>2021-07-07T14:27:40Z</time>
      </trkpt>
      <trkpt lat="43.69307" lon="-1.42624">
        <ele>4.94</ele>
        <time>2021-07-07T14:27:41Z</time>
      </trkpt>
      <trkpt lat="43.69364" lon="-1.42731">
        <ele>8.79</ele>
        <time>2021-07-07T14:27:50Z</time>
      </trkpt>
      <trkpt lat="43.69394" lon="-1.42795">
        <ele>8.31</ele>
        <time>2021-07-07T14:27:55Z</time>
      </trkpt>
      <trkpt lat="43.69484" lon="-1.42943">
        <ele>2.54</ele>
        <time>2021-07-07T14:28:08Z</time>
      </trkpt>
      <trkpt lat="43.69556" lon="-1.43027">
        <ele>1.58</ele>
        <time>2021-07-07T14:28:16Z</time>
      </trkpt>
      <trkpt lat="43.6968" lon="-1.43169">
        <ele>5.91</ele>
        <time>2021-07-07T14:28:30Z</time>
      </trkpt>
      <trkpt lat="43.69803" lon="-1.4331">
        <ele>3.98</ele>
        <time>2021-07-07T14:28:45Z</time>
      </trkpt>
      <trkpt lat="43.69809" lon="-1.43318">
        <ele>3.98</ele>
        <time>2021-07-07T14:28:47Z</time>
      </trkpt>
      <trkpt lat="43.69811" lon="-1.43327">
        <ele>3.98</ele>
        <time>2021-07-07T14:28:48Z</time>
      </trkpt>
      <trkpt lat="43.69813" lon="-1.43336">
        <ele>3.5</ele>
        <time>2021-07-07T14:28:49Z</time>
      </trkpt>
      <trkpt lat="43.69815" lon="-1.43345">
        <ele>3.5</ele>
        <time>2021-07-07T14:28:50Z</time>
      </trkpt>
      <trkpt lat="43.69816" lon="-1.43353">
        <ele>3.5</ele>
        <time>2021-07-07T14:28:51Z</time>
      </trkpt>
      <trkpt lat="43.69818" lon="-1.4336">
        <ele>3.02</ele>
        <time>2021-07-07T14:28:52Z</time>
      </trkpt>
      <trkpt lat="43.69819" lon="-1.43365">
        <ele>3.5</ele>
        <time>2021-07-07T14:28:53Z</time>
      </trkpt>
      <trkpt lat="43.69827" lon="-1.43379">
        <ele>3.5</ele>
        <time>2021-07-07T14:28:54Z</time>
      </trkpt>
      <trkpt lat="43.6983" lon="-1.43385">
        <ele>3.5</ele>
        <time>2021-07-07T14:28:55Z</time>
      </trkpt>
      <trkpt lat="43.69831" lon="-1.43392">
        <ele>3.98</ele>
        <time>2021-07-07T14:28:56Z</time>
      </trkpt>
      <trkpt lat="43.6983" lon="-1.434">
        <ele>3.98</ele>
        <time>2021-07-07T14:28:57Z</time>
      </trkpt>
      <trkpt lat="43.69827" lon="-1.43406">
        <ele>3.5</ele>
        <time>2021-07-07T14:28:58Z</time>
      </trkpt>
      <trkpt lat="43.69825" lon="-1.43413">
        <ele>3.5</ele>
        <time>2021-07-07T14:28:59Z</time>
      </trkpt>
      <trkpt lat="43.69822" lon="-1.43418">
        <ele>3.02</ele>
        <time>2021-07-07T14:29:00Z</time>
      </trkpt>
      <trkpt lat="43.69822" lon="-1.43418">
        <ele>3.02</ele>
        <time>2021-07-07T14:29:01Z</time>
      </trkpt>
      <trkpt lat="43.69821" lon="-1.43427">
        <ele>3.02</ele>
        <time>2021-07-07T14:29:02Z</time>
      </trkpt>
      <trkpt lat="43.69821" lon="-1.43434">
        <ele>3.5</ele>
        <time>2021-07-07T14:29:03Z</time>
      </trkpt>
      <trkpt lat="43.69821" lon="-1.43442">
        <ele>3.98</ele>
        <time>2021-07-07T14:29:04Z</time>
      </trkpt>
      <trkpt lat="43.69821" lon="-1.4345">
        <ele>4.94</ele>
        <time>2021-07-07T14:29:05Z</time>
      </trkpt>
      <trkpt lat="43.6982" lon="-1.43466">
        <ele>5.42</ele>
        <time>2021-07-07T14:29:06Z</time>
      </trkpt>
      <trkpt lat="43.69813" lon="-1.43522">
        <ele>9.27</ele>
        <time>2021-07-07T14:29:15Z</time>
      </trkpt>
      <trkpt lat="43.69811" lon="-1.43528">
        <ele>9.27</ele>
        <time>2021-07-07T14:29:16Z</time>
      </trkpt>
      <trkpt lat="43.6981" lon="-1.43535">
        <ele>8.79</ele>
        <time>2021-07-07T14:29:17Z</time>
      </trkpt>
      <trkpt lat="43.69777" lon="-1.43644">
        <ele>4.94</ele>
        <time>2021-07-07T14:29:32Z</time>
      </trkpt>
      <trkpt lat="43.69777" lon="-1.43676">
        <ele>4.46</ele>
        <time>2021-07-07T14:29:39Z</time>
      </trkpt>
      <trkpt lat="43.69777" lon="-1.43676">
        <ele>4.46</ele>
        <time>2021-07-07T14:29:40Z</time>
      </trkpt>
      <trkpt lat="43.69805" lon="-1.43668">
        <ele>3.02</ele>
        <time>2021-07-07T14:29:52Z</time>
      </trkpt>
      <trkpt lat="43.69848" lon="-1.4363">
        <ele>2.06</ele>
        <time>2021-07-07T14:30:06Z</time>
      </trkpt>
      <trkpt lat="43.69854" lon="-1.43632">
        <ele>3.98</ele>
        <time>2021-07-07T14:30:09Z</time>
      </trkpt>
      <trkpt lat="43.69856" lon="-1.43632">
        <ele>3.98</ele>
        <time>2021-07-07T14:30:10Z</time>
      </trkpt>
      <trkpt lat="43.69857" lon="-1.43633">
        <ele>4.46</ele>
        <time>2021-07-07T14:30:11Z</time>
      </trkpt>
      <trkpt lat="43.69849" lon="-1.43629">
        <ele>4.94</ele>
        <time>2021-07-07T14:30:12Z</time>
      </trkpt>
      <trkpt lat="43.69858" lon="-1.43633">
        <ele>4.46</ele>
        <time>2021-07-07T14:30:14Z</time>
      </trkpt>
      <trkpt lat="43.69856" lon="-1.43633">
        <ele>4.46</ele>
        <time>2021-07-07T14:30:15Z</time>
      </trkpt>
      <trkpt lat="43.69854" lon="-1.43632">
        <ele>4.46</ele>
        <time>2021-07-07T14:30:16Z</time>
      </trkpt>
      <trkpt lat="43.69842" lon="-1.43635">
        <ele>4.46</ele>
        <time>2021-07-07T14:30:17Z</time>
      </trkpt>
      <trkpt lat="43.69831" lon="-1.4368">
        <ele>4.94</ele>
        <time>2021-07-07T14:30:27Z</time>
      </trkpt>
      <trkpt lat="43.69829" lon="-1.43685">
        <ele>5.42</ele>
        <time>2021-07-07T14:30:41Z</time>
      </trkpt>
      <trkpt lat="43.69818" lon="-1.43697">
        <ele>5.42</ele>
        <time>2021-07-07T14:38:42Z</time>
      </trkpt>
      <trkpt lat="43.69818" lon="-1.43697">
        <ele>4.94</ele>
        <time>2021-07-07T14:38:47Z</time>
      </trkpt>
    </trkseg>
  </trk>
</gpx>